sensor_id;sensor_type;location;lat;lon;timestamp;temperature;humidity
25554;DHT22;13446;50.926;5.332;2023-08-08T00:00:38;15.70;99.90
25554;DHT22;13446;50.926;5.332;2023-08-08T00:03:04;15.60;99.90
25554;DHT22;13446;50.926;5.332;2023-08-08T00:05:30;15.60;99.90
25554;DHT22;13446;50.926;5.332;2023-08-08T00:07:55;15.60;99.90
25554;DHT22;13446;50.926;5.332;2023-08-08T00:10:21;15.60;99.90
25554;DHT22;13446;50.926;5.332;2023-08-08T00:12:47;15.50;99.90
25554;DHT22;13446;50.926;5.332;2023-08-08T00:15:12;15.50;99.90
25554;DHT22;13446;50.926;5.332;2023-08-08T00:17:38;15.40;99.90
25554;DHT22;13446;50.926;5.332;2023-08-08T00:20:04;15.50;99.90
25554;DHT22;13446;50.926;5.332;2023-08-08T00:22:29;15.50;99.90
25554;DHT22;13446;50.926;5.332;2023-08-08T00:24:55;15.30;99.90
25554;DHT22;13446;50.926;5.332;2023-08-08T00:27:20;15.30;99.90
25554;DHT22;13446;50.926;5.332;2023-08-08T00:29:46;15.30;99.90
25554;DHT22;13446;50.926;5.332;2023-08-08T00:32:11;15.30;99.90
25554;DHT22;13446;50.926;5.332;2023-08-08T00:34:38;15.30;99.90
25554;DHT22;13446;50.926;5.332;2023-08-08T00:37:03;15.40;99.90
25554;DHT22;13446;50.926;5.332;2023-08-08T00:39:29;15.40;99.90
25554;DHT22;13446;50.926;5.332;2023-08-08T00:41:54;15.40;99.90
25554;DHT22;13446;50.926;5.332;2023-08-08T00:44:20;15.30;99.90
25554;DHT22;13446;50.926;5.332;2023-08-08T00:46:45;15.30;99.90
25554;DHT22;13446;50.926;5.332;2023-08-08T00:49:11;15.30;99.90
25554;DHT22;13446;50.926;5.332;2023-08-08T00:51:37;15.30;99.90
25554;DHT22;13446;50.926;5.332;2023-08-08T00:54:02;15.20;99.90
25554;DHT22;13446;50.926;5.332;2023-08-08T00:56:28;15.20;99.90
25554;DHT22;13446;50.926;5.332;2023-08-08T00:58:54;15.10;99.90
25554;DHT22;13446;50.926;5.332;2023-08-08T01:01:20;15.10;99.90
25554;DHT22;13446;50.926;5.332;2023-08-08T01:03:45;15.10;99.90
25554;DHT22;13446;50.926;5.332;2023-08-08T01:08:47;15.10;99.90
25554;DHT22;13446;50.926;5.332;2023-08-08T01:11:14;15.10;99.90
25554;DHT22;13446;50.926;5.332;2023-08-08T01:13:40;15.20;99.90
25554;DHT22;13446;50.926;5.332;2023-08-08T01:16:06;15.10;99.90
25554;DHT22;13446;50.926;5.332;2023-08-08T01:18:32;15.10;99.90
25554;DHT22;13446;50.926;5.332;2023-08-08T01:20:58;14.90;99.90
25554;DHT22;13446;50.926;5.332;2023-08-08T01:26:02;15.00;99.90
25554;DHT22;13446;50.926;5.332;2023-08-08T01:28:28;14.90;99.90
25554;DHT22;13446;50.926;5.332;2023-08-08T01:30:54;14.90;99.90
25554;DHT22;13446;50.926;5.332;2023-08-08T01:33:19;14.90;99.90
25554;DHT22;13446;50.926;5.332;2023-08-08T01:35:47;14.80;99.90
25554;DHT22;13446;50.926;5.332;2023-08-08T01:38:20;14.80;99.90
25554;DHT22;13446;50.926;5.332;2023-08-08T01:40:47;14.90;99.90
25554;DHT22;13446;50.926;5.332;2023-08-08T01:43:13;14.90;99.90
25554;DHT22;13446;50.926;5.332;2023-08-08T01:45:39;14.90;99.90
25554;DHT22;13446;50.926;5.332;2023-08-08T01:48:08;14.90;99.90
25554;DHT22;13446;50.926;5.332;2023-08-08T01:50:34;14.80;99.90
25554;DHT22;13446;50.926;5.332;2023-08-08T01:52:59;14.60;99.90
25554;DHT22;13446;50.926;5.332;2023-08-08T01:55:25;14.80;99.90
25554;DHT22;13446;50.926;5.332;2023-08-08T01:57:50;14.80;99.90
25554;DHT22;13446;50.926;5.332;2023-08-08T02:00:16;14.80;99.90
25554;DHT22;13446;50.926;5.332;2023-08-08T02:02:41;14.80;99.90
25554;DHT22;13446;50.926;5.332;2023-08-08T02:05:07;14.80;99.90
25554;DHT22;13446;50.926;5.332;2023-08-08T02:07:33;14.70;99.90
25554;DHT22;13446;50.926;5.332;2023-08-08T02:09:58;14.60;99.90
25554;DHT22;13446;50.926;5.332;2023-08-08T02:12:24;14.50;99.90
25554;DHT22;13446;50.926;5.332;2023-08-08T02:14:49;14.50;99.90
25554;DHT22;13446;50.926;5.332;2023-08-08T02:17:16;14.50;99.90
25554;DHT22;13446;50.926;5.332;2023-08-08T02:19:41;14.40;99.90
25554;DHT22;13446;50.926;5.332;2023-08-08T02:22:07;14.50;99.90
25554;DHT22;13446;50.926;5.332;2023-08-08T02:24:32;14.40;99.90
25554;DHT22;13446;50.926;5.332;2023-08-08T02:26:58;14.40;99.90
25554;DHT22;13446;50.926;5.332;2023-08-08T02:29:24;14.50;99.90
25554;DHT22;13446;50.926;5.332;2023-08-08T02:31:49;14.50;99.90
25554;DHT22;13446;50.926;5.332;2023-08-08T02:34:15;14.50;99.90
25554;DHT22;13446;50.926;5.332;2023-08-08T02:36:40;14.40;99.90
25554;DHT22;13446;50.926;5.332;2023-08-08T02:39:06;14.60;99.90
25554;DHT22;13446;50.926;5.332;2023-08-08T02:41:31;14.50;99.90
25554;DHT22;13446;50.926;5.332;2023-08-08T02:43:57;14.40;99.90
25554;DHT22;13446;50.926;5.332;2023-08-08T02:46:22;14.50;99.90
25554;DHT22;13446;50.926;5.332;2023-08-08T02:48:48;14.40;99.90
25554;DHT22;13446;50.926;5.332;2023-08-08T02:51:13;14.40;99.90
25554;DHT22;13446;50.926;5.332;2023-08-08T02:53:39;14.40;99.90
25554;DHT22;13446;50.926;5.332;2023-08-08T02:56:05;14.40;99.90
25554;DHT22;13446;50.926;5.332;2023-08-08T02:58:30;14.50;99.90
25554;DHT22;13446;50.926;5.332;2023-08-08T03:00:56;14.40;99.90
25554;DHT22;13446;50.926;5.332;2023-08-08T03:03:21;14.40;99.90
25554;DHT22;13446;50.926;5.332;2023-08-08T03:05:49;14.30;99.90
25554;DHT22;13446;50.926;5.332;2023-08-08T03:08:14;14.40;99.90
25554;DHT22;13446;50.926;5.332;2023-08-08T03:10:40;14.40;99.90
25554;DHT22;13446;50.926;5.332;2023-08-08T03:13:06;14.40;99.90
25554;DHT22;13446;50.926;5.332;2023-08-08T03:15:32;14.40;99.90
25554;DHT22;13446;50.926;5.332;2023-08-08T03:17:57;14.40;99.90
25554;DHT22;13446;50.926;5.332;2023-08-08T03:20:23;14.40;99.90
25554;DHT22;13446;50.926;5.332;2023-08-08T03:22:49;14.30;99.90
25554;DHT22;13446;50.926;5.332;2023-08-08T03:25:14;14.40;99.90
25554;DHT22;13446;50.926;5.332;2023-08-08T03:27:40;14.40;99.90
25554;DHT22;13446;50.926;5.332;2023-08-08T03:30:05;14.30;99.90
25554;DHT22;13446;50.926;5.332;2023-08-08T03:32:32;14.30;99.90
25554;DHT22;13446;50.926;5.332;2023-08-08T03:34:57;14.30;99.90
25554;DHT22;13446;50.926;5.332;2023-08-08T03:37:23;14.30;99.90
25554;DHT22;13446;50.926;5.332;2023-08-08T03:39:48;14.20;99.90
25554;DHT22;13446;50.926;5.332;2023-08-08T03:42:14;14.20;99.90
25554;DHT22;13446;50.926;5.332;2023-08-08T03:44:39;14.10;99.90
25554;DHT22;13446;50.926;5.332;2023-08-08T03:47:06;14.00;99.90
25554;DHT22;13446;50.926;5.332;2023-08-08T03:49:31;14.10;99.90
25554;DHT22;13446;50.926;5.332;2023-08-08T03:51:59;14.10;99.90
25554;DHT22;13446;50.926;5.332;2023-08-08T03:54:25;14.20;99.90
25554;DHT22;13446;50.926;5.332;2023-08-08T03:56:50;14.20;99.90
25554;DHT22;13446;50.926;5.332;2023-08-08T03:59:16;14.20;99.90
25554;DHT22;13446;50.926;5.332;2023-08-08T04:01:41;14.20;99.90
25554;DHT22;13446;50.926;5.332;2023-08-08T04:04:07;14.20;99.90
25554;DHT22;13446;50.926;5.332;2023-08-08T04:06:33;14.10;99.90
25554;DHT22;13446;50.926;5.332;2023-08-08T04:08:58;14.10;99.90
25554;DHT22;13446;50.926;5.332;2023-08-08T04:11:26;14.20;99.90
25554;DHT22;13446;50.926;5.332;2023-08-08T04:13:51;14.10;99.90
25554;DHT22;13446;50.926;5.332;2023-08-08T04:16:18;14.00;99.90
25554;DHT22;13446;50.926;5.332;2023-08-08T04:18:43;14.10;99.90
25554;DHT22;13446;50.926;5.332;2023-08-08T04:21:09;14.10;99.90
25554;DHT22;13446;50.926;5.332;2023-08-08T04:23:34;14.20;99.90
25554;DHT22;13446;50.926;5.332;2023-08-08T04:26:00;14.30;99.90
25554;DHT22;13446;50.926;5.332;2023-08-08T04:28:25;14.40;99.90
25554;DHT22;13446;50.926;5.332;2023-08-08T04:30:51;14.30;99.90
25554;DHT22;13446;50.926;5.332;2023-08-08T04:33:17;14.20;99.90
25554;DHT22;13446;50.926;5.332;2023-08-08T04:35:42;14.10;99.90
25554;DHT22;13446;50.926;5.332;2023-08-08T04:38:09;14.10;99.90
25554;DHT22;13446;50.926;5.332;2023-08-08T04:40:34;14.20;99.90
25554;DHT22;13446;50.926;5.332;2023-08-08T04:43:00;14.20;99.90
25554;DHT22;13446;50.926;5.332;2023-08-08T04:45:26;14.10;99.90
25554;DHT22;13446;50.926;5.332;2023-08-08T04:47:52;14.20;99.90
25554;DHT22;13446;50.926;5.332;2023-08-08T04:50:18;14.20;99.90
25554;DHT22;13446;50.926;5.332;2023-08-08T04:52:43;14.20;99.90
25554;DHT22;13446;50.926;5.332;2023-08-08T04:55:09;14.20;99.90
25554;DHT22;13446;50.926;5.332;2023-08-08T04:57:35;14.20;99.90
25554;DHT22;13446;50.926;5.332;2023-08-08T05:00:00;14.20;99.90
25554;DHT22;13446;50.926;5.332;2023-08-08T05:02:30;14.30;99.90
25554;DHT22;13446;50.926;5.332;2023-08-08T05:04:56;14.40;99.90
25554;DHT22;13446;50.926;5.332;2023-08-08T05:07:21;14.60;99.90
25554;DHT22;13446;50.926;5.332;2023-08-08T05:09:47;14.50;99.90
25554;DHT22;13446;50.926;5.332;2023-08-08T05:12:12;14.70;99.90
25554;DHT22;13446;50.926;5.332;2023-08-08T05:14:38;14.70;99.90
25554;DHT22;13446;50.926;5.332;2023-08-08T05:17:04;14.70;99.90
25554;DHT22;13446;50.926;5.332;2023-08-08T05:19:29;14.80;99.90
25554;DHT22;13446;50.926;5.332;2023-08-08T05:21:55;14.80;99.90
25554;DHT22;13446;50.926;5.332;2023-08-08T05:24:21;14.90;99.90
25554;DHT22;13446;50.926;5.332;2023-08-08T05:26:47;14.80;99.90
25554;DHT22;13446;50.926;5.332;2023-08-08T05:29:12;15.10;99.90
25554;DHT22;13446;50.926;5.332;2023-08-08T05:31:38;15.20;99.90
25554;DHT22;13446;50.926;5.332;2023-08-08T05:34:03;15.50;99.90
25554;DHT22;13446;50.926;5.332;2023-08-08T05:36:29;16.00;99.90
25554;DHT22;13446;50.926;5.332;2023-08-08T05:38:54;16.50;99.90
25554;DHT22;13446;50.926;5.332;2023-08-08T05:41:20;17.10;99.90
25554;DHT22;13446;50.926;5.332;2023-08-08T05:43:46;17.60;99.90
25554;DHT22;13446;50.926;5.332;2023-08-08T05:46:11;18.10;99.90
25554;DHT22;13446;50.926;5.332;2023-08-08T05:48:37;18.60;99.90
25554;DHT22;13446;50.926;5.332;2023-08-08T05:51:02;18.80;99.90
25554;DHT22;13446;50.926;5.332;2023-08-08T05:53:30;19.10;99.90
25554;DHT22;13446;50.926;5.332;2023-08-08T05:55:56;19.30;99.90
25554;DHT22;13446;50.926;5.332;2023-08-08T05:58:22;19.30;99.90
25554;DHT22;13446;50.926;5.332;2023-08-08T06:00:47;19.40;99.90
25554;DHT22;13446;50.926;5.332;2023-08-08T06:03:13;19.40;99.90
25554;DHT22;13446;50.926;5.332;2023-08-08T06:05:38;19.30;99.90
25554;DHT22;13446;50.926;5.332;2023-08-08T06:08:04;19.40;99.90
25554;DHT22;13446;50.926;5.332;2023-08-08T06:10:32;19.30;99.90
25554;DHT22;13446;50.926;5.332;2023-08-08T06:12:57;19.90;99.90
25554;DHT22;13446;50.926;5.332;2023-08-08T06:15:24;20.00;99.90
25554;DHT22;13446;50.926;5.332;2023-08-08T06:17:49;19.90;99.90
25554;DHT22;13446;50.926;5.332;2023-08-08T06:20:15;20.00;99.90
25554;DHT22;13446;50.926;5.332;2023-08-08T06:22:41;19.80;99.90
25554;DHT22;13446;50.926;5.332;2023-08-08T06:25:07;20.10;99.90
25554;DHT22;13446;50.926;5.332;2023-08-08T06:27:33;20.80;99.90
25554;DHT22;13446;50.926;5.332;2023-08-08T06:29:58;21.00;99.90
25554;DHT22;13446;50.926;5.332;2023-08-08T06:32:24;21.00;99.90
25554;DHT22;13446;50.926;5.332;2023-08-08T06:34:49;21.50;99.90
25554;DHT22;13446;50.926;5.332;2023-08-08T06:37:15;22.50;99.90
25554;DHT22;13446;50.926;5.332;2023-08-08T06:39:40;23.10;99.90
25554;DHT22;13446;50.926;5.332;2023-08-08T06:42:07;23.70;99.90
25554;DHT22;13446;50.926;5.332;2023-08-08T06:44:32;24.20;99.90
25554;DHT22;13446;50.926;5.332;2023-08-08T06:46:58;24.60;99.90
25554;DHT22;13446;50.926;5.332;2023-08-08T06:49:24;24.80;99.90
25554;DHT22;13446;50.926;5.332;2023-08-08T06:51:49;25.10;99.90
25554;DHT22;13446;50.926;5.332;2023-08-08T06:54:15;25.60;99.90
25554;DHT22;13446;50.926;5.332;2023-08-08T06:56:40;25.90;99.90
25554;DHT22;13446;50.926;5.332;2023-08-08T06:59:06;25.40;99.90
25554;DHT22;13446;50.926;5.332;2023-08-08T07:01:31;24.90;99.90
25554;DHT22;13446;50.926;5.332;2023-08-08T07:03:57;24.60;99.90
25554;DHT22;13446;50.926;5.332;2023-08-08T07:06:22;24.20;99.90
25554;DHT22;13446;50.926;5.332;2023-08-08T07:08:48;23.40;99.90
25554;DHT22;13446;50.926;5.332;2023-08-08T07:11:14;22.70;99.90
25554;DHT22;13446;50.926;5.332;2023-08-08T07:13:39;22.30;99.90
25554;DHT22;13446;50.926;5.332;2023-08-08T07:16:06;21.90;99.90
25554;DHT22;13446;50.926;5.332;2023-08-08T07:18:31;21.50;99.90
25554;DHT22;13446;50.926;5.332;2023-08-08T07:20:57;21.10;99.90
25554;DHT22;13446;50.926;5.332;2023-08-08T07:23:23;20.90;99.90
25554;DHT22;13446;50.926;5.332;2023-08-08T07:25:48;20.70;99.90
25554;DHT22;13446;50.926;5.332;2023-08-08T07:28:14;20.30;99.90
25554;DHT22;13446;50.926;5.332;2023-08-08T07:30:40;20.10;99.90
25554;DHT22;13446;50.926;5.332;2023-08-08T07:33:06;20.20;99.90
25554;DHT22;13446;50.926;5.332;2023-08-08T07:35:32;20.20;99.90
25554;DHT22;13446;50.926;5.332;2023-08-08T07:37:58;20.20;99.90
25554;DHT22;13446;50.926;5.332;2023-08-08T07:40:24;20.30;99.90
25554;DHT22;13446;50.926;5.332;2023-08-08T07:42:49;20.20;99.90
25554;DHT22;13446;50.926;5.332;2023-08-08T07:45:15;20.10;99.90
25554;DHT22;13446;50.926;5.332;2023-08-08T07:47:41;19.90;99.90
25554;DHT22;13446;50.926;5.332;2023-08-08T07:50:07;19.80;99.90
25554;DHT22;13446;50.926;5.332;2023-08-08T07:52:36;19.90;99.90
25554;DHT22;13446;50.926;5.332;2023-08-08T07:55:02;20.20;99.90
25554;DHT22;13446;50.926;5.332;2023-08-08T07:57:27;20.40;99.90
25554;DHT22;13446;50.926;5.332;2023-08-08T07:59:53;20.80;99.90
25554;DHT22;13446;50.926;5.332;2023-08-08T08:02:19;21.10;99.90
25554;DHT22;13446;50.926;5.332;2023-08-08T08:04:44;21.30;99.90
25554;DHT22;13446;50.926;5.332;2023-08-08T08:07:10;21.70;99.90
25554;DHT22;13446;50.926;5.332;2023-08-08T08:09:35;22.10;99.90
25554;DHT22;13446;50.926;5.332;2023-08-08T08:12:01;22.50;99.90
25554;DHT22;13446;50.926;5.332;2023-08-08T08:14:26;22.70;99.90
25554;DHT22;13446;50.926;5.332;2023-08-08T08:16:52;22.70;99.90
25554;DHT22;13446;50.926;5.332;2023-08-08T08:19:19;22.60;99.90
25554;DHT22;13446;50.926;5.332;2023-08-08T08:21:44;22.40;99.90
25554;DHT22;13446;50.926;5.332;2023-08-08T08:24:10;22.10;99.90
25554;DHT22;13446;50.926;5.332;2023-08-08T08:26:36;22.10;99.90
25554;DHT22;13446;50.926;5.332;2023-08-08T08:29:01;22.10;99.90
25554;DHT22;13446;50.926;5.332;2023-08-08T08:31:27;22.30;99.90
25554;DHT22;13446;50.926;5.332;2023-08-08T08:33:53;22.10;99.90
25554;DHT22;13446;50.926;5.332;2023-08-08T08:36:20;22.20;99.90
25554;DHT22;13446;50.926;5.332;2023-08-08T08:38:46;22.20;99.90
25554;DHT22;13446;50.926;5.332;2023-08-08T08:41:12;22.30;99.90
25554;DHT22;13446;50.926;5.332;2023-08-08T08:43:39;22.70;99.90
25554;DHT22;13446;50.926;5.332;2023-08-08T08:46:05;23.10;99.90
25554;DHT22;13446;50.926;5.332;2023-08-08T08:48:33;23.20;99.90
25554;DHT22;13446;50.926;5.332;2023-08-08T08:50:59;23.20;99.90
25554;DHT22;13446;50.926;5.332;2023-08-08T08:53:25;23.10;99.90
25554;DHT22;13446;50.926;5.332;2023-08-08T08:55:50;23.10;99.90
25554;DHT22;13446;50.926;5.332;2023-08-08T08:58:17;23.80;99.90
25554;DHT22;13446;50.926;5.332;2023-08-08T09:00:44;24.10;99.90
25554;DHT22;13446;50.926;5.332;2023-08-08T09:03:10;24.00;99.90
25554;DHT22;13446;50.926;5.332;2023-08-08T09:05:36;24.10;99.90
25554;DHT22;13446;50.926;5.332;2023-08-08T09:08:02;24.00;99.90
25554;DHT22;13446;50.926;5.332;2023-08-08T09:10:27;24.40;99.90
25554;DHT22;13446;50.926;5.332;2023-08-08T09:12:55;24.70;99.90
25554;DHT22;13446;50.926;5.332;2023-08-08T09:15:21;25.00;99.90
25554;DHT22;13446;50.926;5.332;2023-08-08T09:17:46;25.10;99.90
25554;DHT22;13446;50.926;5.332;2023-08-08T09:20:15;25.10;99.90
25554;DHT22;13446;50.926;5.332;2023-08-08T09:22:41;24.80;99.90
25554;DHT22;13446;50.926;5.332;2023-08-08T09:25:07;24.50;99.90
25554;DHT22;13446;50.926;5.332;2023-08-08T09:27:33;24.50;99.90
25554;DHT22;13446;50.926;5.332;2023-08-08T09:29:59;24.80;99.90
25554;DHT22;13446;50.926;5.332;2023-08-08T09:32:28;24.70;99.90
25554;DHT22;13446;50.926;5.332;2023-08-08T09:34:55;25.20;99.90
25554;DHT22;13446;50.926;5.332;2023-08-08T09:37:20;25.70;99.80
25554;DHT22;13446;50.926;5.332;2023-08-08T09:39:46;26.30;98.30
25554;DHT22;13446;50.926;5.332;2023-08-08T09:42:12;25.80;97.20
25554;DHT22;13446;50.926;5.332;2023-08-08T09:44:38;25.70;97.10
25554;DHT22;13446;50.926;5.332;2023-08-08T09:47:04;25.80;97.40
25554;DHT22;13446;50.926;5.332;2023-08-08T09:49:30;25.80;97.10
25554;DHT22;13446;50.926;5.332;2023-08-08T09:51:59;25.50;97.50
25554;DHT22;13446;50.926;5.332;2023-08-08T09:54:25;25.70;98.10
25554;DHT22;13446;50.926;5.332;2023-08-08T09:56:51;25.90;97.80
25554;DHT22;13446;50.926;5.332;2023-08-08T09:59:17;25.50;97.40
25554;DHT22;13446;50.926;5.332;2023-08-08T10:01:43;25.40;98.20
25554;DHT22;13446;50.926;5.332;2023-08-08T10:04:11;25.30;97.90
25554;DHT22;13446;50.926;5.332;2023-08-08T10:06:37;25.10;98.30
25554;DHT22;13446;50.926;5.332;2023-08-08T10:09:02;24.90;98.20
25554;DHT22;13446;50.926;5.332;2023-08-08T10:11:28;24.60;98.90
25554;DHT22;13446;50.926;5.332;2023-08-08T10:13:55;24.80;99.00
25554;DHT22;13446;50.926;5.332;2023-08-08T10:16:21;24.70;99.00
25554;DHT22;13446;50.926;5.332;2023-08-08T10:19:00;24.60;98.80
25554;DHT22;13446;50.926;5.332;2023-08-08T10:21:26;24.60;98.00
25554;DHT22;13446;50.926;5.332;2023-08-08T10:24:03;24.60;99.00
25554;DHT22;13446;50.926;5.332;2023-08-08T10:26:30;24.80;98.80
25554;DHT22;13446;50.926;5.332;2023-08-08T10:28:56;25.10;98.40
25554;DHT22;13446;50.926;5.332;2023-08-08T10:31:22;25.30;98.20
25554;DHT22;13446;50.926;5.332;2023-08-08T10:33:48;24.90;98.10
25554;DHT22;13446;50.926;5.332;2023-08-08T10:36:13;24.50;98.80
25554;DHT22;13446;50.926;5.332;2023-08-08T10:38:40;24.20;99.50
25554;DHT22;13446;50.926;5.332;2023-08-08T10:41:09;23.60;99.90
25554;DHT22;13446;50.926;5.332;2023-08-08T10:43:34;23.40;99.90
25554;DHT22;13446;50.926;5.332;2023-08-08T10:46:00;23.00;99.90
25554;DHT22;13446;50.926;5.332;2023-08-08T10:48:26;22.90;99.90
25554;DHT22;13446;50.926;5.332;2023-08-08T10:50:57;22.70;99.90
25554;DHT22;13446;50.926;5.332;2023-08-08T10:53:26;22.70;99.90
25554;DHT22;13446;50.926;5.332;2023-08-08T10:56:00;22.50;99.90
25554;DHT22;13446;50.926;5.332;2023-08-08T10:58:38;22.40;99.90
25554;DHT22;13446;50.926;5.332;2023-08-08T11:01:05;22.40;99.90
25554;DHT22;13446;50.926;5.332;2023-08-08T11:03:42;22.30;99.90
25554;DHT22;13446;50.926;5.332;2023-08-08T11:06:09;22.40;99.90
25554;DHT22;13446;50.926;5.332;2023-08-08T11:08:36;22.50;99.90
25554;DHT22;13446;50.926;5.332;2023-08-08T11:11:06;23.30;99.90
25554;DHT22;13446;50.926;5.332;2023-08-08T11:13:32;23.70;99.90
25554;DHT22;13446;50.926;5.332;2023-08-08T11:15:58;23.90;99.90
25554;DHT22;13446;50.926;5.332;2023-08-08T11:18:23;23.70;99.90
25554;DHT22;13446;50.926;5.332;2023-08-08T11:20:50;24.00;99.90
25554;DHT22;13446;50.926;5.332;2023-08-08T11:23:16;23.80;99.90
25554;DHT22;13446;50.926;5.332;2023-08-08T11:25:48;23.80;99.90
25554;DHT22;13446;50.926;5.332;2023-08-08T11:28:15;23.80;99.90
25554;DHT22;13446;50.926;5.332;2023-08-08T11:30:45;23.50;99.90
25554;DHT22;13446;50.926;5.332;2023-08-08T11:33:12;23.20;99.90
25554;DHT22;13446;50.926;5.332;2023-08-08T11:35:44;23.00;99.90
25554;DHT22;13446;50.926;5.332;2023-08-08T11:38:14;22.70;99.90
25554;DHT22;13446;50.926;5.332;2023-08-08T11:40:40;22.50;99.90
25554;DHT22;13446;50.926;5.332;2023-08-08T11:43:06;22.40;99.90
25554;DHT22;13446;50.926;5.332;2023-08-08T11:45:31;22.30;99.90
25554;DHT22;13446;50.926;5.332;2023-08-08T11:47:57;22.30;99.90
25554;DHT22;13446;50.926;5.332;2023-08-08T11:50:24;22.10;99.90
25554;DHT22;13446;50.926;5.332;2023-08-08T11:52:50;21.80;99.90
25554;DHT22;13446;50.926;5.332;2023-08-08T11:55:16;21.70;99.90
25554;DHT22;13446;50.926;5.332;2023-08-08T11:57:47;21.50;99.90
25554;DHT22;13446;50.926;5.332;2023-08-08T12:00:13;21.30;99.90
25554;DHT22;13446;50.926;5.332;2023-08-08T12:02:40;21.10;99.90
25554;DHT22;13446;50.926;5.332;2023-08-08T12:05:06;20.90;99.90
25554;DHT22;13446;50.926;5.332;2023-08-08T12:07:32;20.70;99.90
25554;DHT22;13446;50.926;5.332;2023-08-08T12:09:59;21.50;99.90
25554;DHT22;13446;50.926;5.332;2023-08-08T12:12:28;23.10;99.90
25554;DHT22;13446;50.926;5.332;2023-08-08T12:14:54;23.90;99.90
25554;DHT22;13446;50.926;5.332;2023-08-08T12:17:20;24.00;99.90
25554;DHT22;13446;50.926;5.332;2023-08-08T12:19:47;23.80;99.90
25554;DHT22;13446;50.926;5.332;2023-08-08T12:22:14;23.70;99.90
25554;DHT22;13446;50.926;5.332;2023-08-08T12:24:39;23.60;99.90
25554;DHT22;13446;50.926;5.332;2023-08-08T12:27:05;24.10;99.90
25554;DHT22;13446;50.926;5.332;2023-08-08T12:29:31;24.20;99.90
25554;DHT22;13446;50.926;5.332;2023-08-08T12:31:56;24.10;99.90
25554;DHT22;13446;50.926;5.332;2023-08-08T12:34:22;24.50;99.90
25554;DHT22;13446;50.926;5.332;2023-08-08T12:36:47;24.80;99.60
25554;DHT22;13446;50.926;5.332;2023-08-08T12:39:13;25.10;98.50
25554;DHT22;13446;50.926;5.332;2023-08-08T12:41:39;25.50;98.10
25554;DHT22;13446;50.926;5.332;2023-08-08T12:44:05;25.90;96.70
25554;DHT22;13446;50.926;5.332;2023-08-08T12:46:31;26.80;95.00
25554;DHT22;13446;50.926;5.332;2023-08-08T12:48:56;26.80;94.00
25554;DHT22;13446;50.926;5.332;2023-08-08T12:51:22;28.10;91.50
25554;DHT22;13446;50.926;5.332;2023-08-08T12:53:49;28.80;86.50
25554;DHT22;13446;50.926;5.332;2023-08-08T12:56:15;28.20;83.90
25554;DHT22;13446;50.926;5.332;2023-08-08T12:58:41;27.20;86.80
25554;DHT22;13446;50.926;5.332;2023-08-08T13:01:06;26.70;86.90
25554;DHT22;13446;50.926;5.332;2023-08-08T13:03:33;26.50;88.10
25554;DHT22;13446;50.926;5.332;2023-08-08T13:05:59;26.10;85.90
25554;DHT22;13446;50.926;5.332;2023-08-08T13:08:25;25.90;85.10
25554;DHT22;13446;50.926;5.332;2023-08-08T13:10:51;25.70;84.60
25554;DHT22;13446;50.926;5.332;2023-08-08T13:13:16;25.40;85.90
25554;DHT22;13446;50.926;5.332;2023-08-08T13:15:42;25.70;88.00
25554;DHT22;13446;50.926;5.332;2023-08-08T13:18:08;25.60;87.50
25554;DHT22;13446;50.926;5.332;2023-08-08T13:20:34;25.70;89.10
25554;DHT22;13446;50.926;5.332;2023-08-08T13:22:59;26.40;87.10
25554;DHT22;13446;50.926;5.332;2023-08-08T13:25:25;27.30;85.50
25554;DHT22;13446;50.926;5.332;2023-08-08T13:27:51;26.90;79.70
25554;DHT22;13446;50.926;5.332;2023-08-08T13:30:16;26.00;83.90
25554;DHT22;13446;50.926;5.332;2023-08-08T13:32:42;25.90;86.20
25554;DHT22;13446;50.926;5.332;2023-08-08T13:35:08;25.90;86.30
25554;DHT22;13446;50.926;5.332;2023-08-08T13:37:33;26.00;86.90
25554;DHT22;13446;50.926;5.332;2023-08-08T13:39:59;25.90;86.30
25554;DHT22;13446;50.926;5.332;2023-08-08T13:42:25;25.50;85.70
25554;DHT22;13446;50.926;5.332;2023-08-08T13:44:50;25.30;89.60
25554;DHT22;13446;50.926;5.332;2023-08-08T13:47:16;25.40;88.80
25554;DHT22;13446;50.926;5.332;2023-08-08T13:49:41;25.50;88.80
25554;DHT22;13446;50.926;5.332;2023-08-08T13:52:08;25.50;88.80
25554;DHT22;13446;50.926;5.332;2023-08-08T13:54:33;25.50;88.80
25554;DHT22;13446;50.926;5.332;2023-08-08T13:56:59;25.50;89.90
25554;DHT22;13446;50.926;5.332;2023-08-08T13:59:25;25.40;89.80
25554;DHT22;13446;50.926;5.332;2023-08-08T14:01:52;25.20;88.40
25554;DHT22;13446;50.926;5.332;2023-08-08T14:04:17;25.10;90.20
25554;DHT22;13446;50.926;5.332;2023-08-08T14:06:43;24.60;90.40
25554;DHT22;13446;50.926;5.332;2023-08-08T14:09:08;24.70;90.70
25554;DHT22;13446;50.926;5.332;2023-08-08T14:11:34;25.00;90.40
25554;DHT22;13446;50.926;5.332;2023-08-08T14:14:00;25.00;90.40
25554;DHT22;13446;50.926;5.332;2023-08-08T14:16:25;24.90;90.20
25554;DHT22;13446;50.926;5.332;2023-08-08T14:18:51;24.90;90.40
25554;DHT22;13446;50.926;5.332;2023-08-08T14:21:22;24.60;91.10
25554;DHT22;13446;50.926;5.332;2023-08-08T14:23:47;24.40;91.40
25554;DHT22;13446;50.926;5.332;2023-08-08T14:26:13;24.40;92.00
25554;DHT22;13446;50.926;5.332;2023-08-08T14:28:40;24.30;92.30
25554;DHT22;13446;50.926;5.332;2023-08-08T14:31:06;24.60;92.50
25554;DHT22;13446;50.926;5.332;2023-08-08T14:33:32;24.90;91.50
25554;DHT22;13446;50.926;5.332;2023-08-08T14:35:58;24.80;91.80
25554;DHT22;13446;50.926;5.332;2023-08-08T14:38:23;24.80;91.00
25554;DHT22;13446;50.926;5.332;2023-08-08T14:40:49;24.80;91.50
25554;DHT22;13446;50.926;5.332;2023-08-08T14:43:15;24.60;92.00
25554;DHT22;13446;50.926;5.332;2023-08-08T14:45:40;24.40;92.50
25554;DHT22;13446;50.926;5.332;2023-08-08T14:48:06;24.30;92.80
25554;DHT22;13446;50.926;5.332;2023-08-08T14:50:32;24.30;92.90
25554;DHT22;13446;50.926;5.332;2023-08-08T14:52:57;24.20;93.60
25554;DHT22;13446;50.926;5.332;2023-08-08T14:55:23;24.40;93.70
25554;DHT22;13446;50.926;5.332;2023-08-08T14:57:48;24.00;93.60
25554;DHT22;13446;50.926;5.332;2023-08-08T15:00:14;23.90;94.30
25554;DHT22;13446;50.926;5.332;2023-08-08T15:02:40;24.20;94.00
25554;DHT22;13446;50.926;5.332;2023-08-08T15:05:05;24.20;93.10
25554;DHT22;13446;50.926;5.332;2023-08-08T15:07:31;24.20;93.60
25554;DHT22;13446;50.926;5.332;2023-08-08T15:09:57;24.40;93.50
25554;DHT22;13446;50.926;5.332;2023-08-08T15:12:22;24.30;93.30
25554;DHT22;13446;50.926;5.332;2023-08-08T15:14:48;24.40;92.70
25554;DHT22;13446;50.926;5.332;2023-08-08T15:17:14;24.40;92.70
25554;DHT22;13446;50.926;5.332;2023-08-08T15:19:39;24.40;92.00
25554;DHT22;13446;50.926;5.332;2023-08-08T15:22:05;24.20;92.70
25554;DHT22;13446;50.926;5.332;2023-08-08T15:24:31;24.40;92.80
25554;DHT22;13446;50.926;5.332;2023-08-08T15:26:58;24.30;93.20